createdAt,value
2018-11-20T00:01:39.241Z,155.07
2018-11-20T00:04:09.004Z,149.50
2018-11-20T00:06:38.831Z,146.87
2018-11-20T00:09:09.165Z,152.23
2018-11-20T00:11:39.257Z,159.17
2018-11-20T00:14:09.646Z,150.10
2018-11-20T00:16:39.308Z,147.57
2018-11-20T00:19:09.310Z,158.17
2018-11-20T00:21:39.153Z,160.30
2018-11-20T00:24:09.326Z,156.27
2018-11-20T00:26:39.160Z,153.73
2018-11-20T00:29:09.171Z,158.57
2018-11-20T00:31:39.250Z,154.27
2018-11-20T00:34:08.597Z,156.47
2018-11-20T00:36:38.209Z,155.17
2018-11-20T00:39:08.249Z,152.43
2018-11-20T00:41:37.932Z,153.13
2018-11-20T00:44:08.048Z,159.50
2018-11-20T00:46:37.798Z,155.37
2018-11-20T00:49:07.722Z,157.70
2018-11-20T00:51:37.392Z,151.10
2018-11-20T00:54:07.123Z,153.47
2018-11-20T00:56:37.018Z,160.53
2018-11-20T00:59:07.340Z,152.10
2018-11-20T01:01:37.326Z,165.33
2018-11-20T01:04:07.414Z,165.40
2018-11-20T01:06:37.051Z,161.33
2018-11-20T01:09:07.556Z,157.97
2018-11-20T01:11:37.525Z,164.10
2018-11-20T01:14:07.735Z,169.77
2018-11-20T01:16:37.325Z,171.37
2018-11-20T01:19:07.877Z,161.60
2018-11-20T01:21:37.958Z,164.87
2018-11-20T01:24:08.114Z,166.63
2018-11-20T01:26:38.444Z,167.23
2018-11-20T01:29:08.351Z,175.87
2018-11-20T01:31:38.618Z,176.50
2018-11-20T01:34:08.777Z,173.27
2018-11-20T01:36:38.865Z,183.33
2018-11-20T01:39:08.851Z,190.60
2018-11-20T01:41:39.012Z,191.03
2018-11-20T01:44:09.655Z,181.00
2018-11-20T01:46:39.487Z,183.17
2018-11-20T01:49:09.488Z,194.53
2018-11-20T01:51:39.363Z,195.17
2018-11-20T01:54:09.133Z,223.13
2018-11-20T01:56:39.529Z,216.63
2018-11-20T01:59:09.273Z,212.83
2018-11-20T02:01:39.350Z,221.27
2018-11-20T02:04:09.360Z,218.10
2018-11-20T02:06:39.441Z,211.73
2018-11-20T02:09:09.313Z,211.10
2018-11-20T02:11:39.081Z,209.60
2018-11-20T02:14:09.317Z,196.97
2018-11-20T02:16:39.209Z,200.93
2018-11-20T02:19:09.205Z,205.87
2018-11-20T02:21:39.644Z,185.47
2018-11-20T02:24:09.443Z,183.67
2018-11-20T02:26:40.075Z,192.97
2018-11-20T02:29:10.125Z,202.97
2018-11-20T02:31:40.321Z,204.70
2018-11-20T02:34:10.333Z,231.70
2018-11-20T02:36:40.363Z,244.20
2018-11-20T02:39:10.480Z,242.30
2018-11-20T02:41:40.592Z,241.90
2018-11-20T02:44:10.361Z,255.37
2018-11-20T02:46:40.756Z,244.97
2018-11-20T02:49:10.753Z,257.60
2018-11-20T02:51:40.965Z,259.67
2018-11-20T02:54:11.042Z,259.83
2018-11-20T02:56:41.328Z,266.67
2018-11-20T02:59:11.436Z,273.67
2018-11-20T03:01:41.486Z,277.07
2018-11-20T03:04:11.352Z,259.70
2018-11-20T03:06:41.653Z,248.87
2018-11-20T03:09:11.693Z,247.07
2018-11-20T03:11:41.654Z,235.57
2018-11-20T03:14:11.846Z,222.60
2018-11-20T03:16:41.900Z,206.20
2018-11-20T03:19:11.771Z,202.10
2018-11-20T03:21:41.788Z,184.80
2018-11-20T03:24:11.837Z,184.37
2018-11-20T03:26:41.756Z,174.83
2018-11-20T03:29:11.910Z,165.33
2018-11-20T03:31:41.560Z,168.47
2018-11-20T03:34:11.832Z,164.93
2018-11-20T03:36:41.885Z,170.80
2018-11-20T03:39:11.691Z,160.03
2018-11-20T03:41:41.311Z,169.50
2018-11-20T03:44:11.052Z,167.63
2018-11-20T03:46:41.588Z,166.33
2018-11-20T03:49:11.764Z,181.37
2018-11-20T03:51:41.202Z,162.20
2018-11-20T03:54:11.183Z,152.53
2018-11-20T03:56:41.073Z,160.20
2018-11-20T03:59:10.791Z,154.77
2018-11-20T04:01:40.835Z,158.57
2018-11-20T04:04:10.634Z,152.27
2018-11-20T04:06:40.640Z,168.97
2018-11-20T04:09:10.360Z,162.83
2018-11-20T04:11:40.580Z,159.40
2018-11-20T04:14:10.819Z,135.60
2018-11-20T04:16:40.420Z,136.73
2018-11-20T04:19:10.383Z,132.63
2018-11-20T04:21:40.242Z,130.33
2018-11-20T04:24:10.153Z,133.97
2018-11-20T04:26:39.829Z,139.67
2018-11-20T04:29:10.068Z,131.13
2018-11-20T04:31:40.169Z,138.80
2018-11-20T04:34:10.034Z,137.67
2018-11-20T04:36:40.141Z,137.63
2018-11-20T04:39:10.149Z,139.47
2018-11-20T04:41:40.286Z,137.57
2018-11-20T04:44:10.275Z,134.30
2018-11-20T04:46:40.413Z,134.60
2018-11-20T04:49:10.109Z,135.53
2018-11-20T04:51:40.246Z,130.87
2018-11-20T04:54:10.227Z,131.10
2018-11-20T04:56:40.379Z,132.67
2018-11-20T04:59:09.882Z,137.03
2018-11-20T05:01:40.206Z,131.77
2018-11-20T05:04:10.051Z,131.13
2018-11-20T05:06:39.846Z,133.67
2018-11-20T05:09:09.962Z,136.07
2018-11-20T05:11:40.167Z,137.37
2018-11-20T05:14:09.981Z,132.37
2018-11-20T05:16:39.897Z,134.80
2018-11-20T05:19:10.061Z,132.83
2018-11-20T05:21:40.241Z,133.20
2018-11-20T05:24:09.902Z,131.63
2018-11-20T05:26:40.074Z,131.90
2018-11-20T05:29:09.983Z,136.23
2018-11-20T05:31:40.161Z,130.63
2018-11-20T05:34:10.250Z,132.17
2018-11-20T05:36:40.313Z,132.50
2018-11-20T05:39:10.387Z,126.47
2018-11-20T05:41:40.377Z,131.10
2018-11-20T05:44:10.568Z,127.03
2018-11-20T05:46:41.707Z,124.87
2018-11-20T05:49:11.692Z,124.10
2018-11-20T05:51:42.698Z,137.13
2018-11-20T05:54:12.257Z,123.97
2018-11-20T05:56:42.321Z,124.13
2018-11-20T05:59:16.492Z,114.50
2018-11-20T06:01:46.076Z,115.67
2018-11-20T06:04:17.026Z,119.77
2018-11-20T06:06:47.721Z,122.40
2018-11-20T06:09:17.131Z,117.50
2018-11-20T06:11:47.015Z,123.40
2018-11-20T06:14:17.068Z,122.23
2018-11-20T06:16:47.350Z,123.97
2018-11-20T06:19:16.882Z,118.87
2018-11-20T06:21:47.009Z,117.23
2018-11-20T06:24:16.961Z,121.63
2018-11-20T06:26:47.020Z,114.07
2018-11-20T06:29:17.182Z,112.20
2018-11-20T06:31:46.871Z,114.90
2018-11-20T06:34:16.945Z,115.63
2018-11-20T06:36:47.631Z,115.60
2018-11-20T06:39:17.787Z,127.63
2018-11-20T06:41:47.754Z,111.17
2018-11-20T06:44:17.952Z,111.37
2018-11-20T06:46:48.351Z,110.23
2018-11-20T06:49:18.430Z,108.57
2018-11-20T06:51:48.574Z,103.93
2018-11-20T06:54:18.921Z,105.17
2018-11-20T06:56:48.466Z,107.47
2018-11-20T06:59:18.100Z,105.13
2018-11-20T07:01:48.493Z,103.00
2018-11-20T07:04:18.317Z,101.27
2018-11-20T07:06:48.328Z,99.37
2018-11-20T07:09:17.753Z,104.90
2018-11-20T07:11:48.819Z,103.30
2018-11-20T07:14:18.705Z,105.63
2018-11-20T07:16:48.697Z,113.70
2018-11-20T07:19:18.735Z,101.70
2018-11-20T07:21:48.839Z,100.37
2018-11-20T07:24:18.952Z,96.13
2018-11-20T07:26:48.951Z,87.87
2018-11-20T07:29:19.060Z,86.03
2018-11-20T07:31:49.143Z,86.77
2018-11-20T07:34:18.700Z,84.95
2018-11-20T07:36:48.294Z,76.62
2018-11-20T07:39:18.196Z,86.17
2018-11-20T07:41:47.956Z,78.10
2018-11-20T07:44:18.136Z,80.03
2018-11-20T07:46:48.094Z,84.17
2018-11-20T07:49:17.925Z,80.90
2018-11-20T07:51:47.922Z,83.90
2018-11-20T07:54:17.734Z,99.27
2018-11-20T07:56:47.862Z,136.10
